Time;durP1;ratioP1;P1;durP2;ratioP2;P2;SDS_P1;SDS_P2;PMS_P1;PMS_P2;Temp;Humidity;BMP_temperature;BMP_pressure;BME280_temperature;BME280_humidity;BME280_pressure;Samples;Min_cycle;Max_cycle;Signal;HPM_P1;HPM_P2
2023/01/07 00:01:05;;;;;;;;;;;9.90;99.90;;;;;;5010405;28;20162;-79
2023/01/07 00:03:30;;;;;;;;;;;9.90;99.90;;;;;;5011412;28;19925;-78
2023/01/07 00:06:03;;;;;;;;;;;9.90;99.90;;;;;;5011182;28;19930;-79
2023/01/07 00:08:29;;;;;;;;;;;10.00;99.90;;;;;;5012613;28;20454;-79
2023/01/07 00:10:55;;;;;;;;;;;9.90;99.90;;;;;;5010622;28;19952;-79
2023/01/07 00:13:21;;;;;;;;;;;10.00;99.90;;;;;;5026121;28;19926;-79
2023/01/07 00:15:46;;;;;;;;;;;10.00;99.90;;;;;;5010112;28;19933;-79
2023/01/07 00:18:12;;;;;;;;;;;10.10;99.90;;;;;;5016385;28;19983;-78
2023/01/07 00:20:38;;;;;;;;;;;10.10;99.90;;;;;;5020603;28;19984;-78
2023/01/07 00:23:03;;;;;;;;;;;10.10;99.90;;;;;;5020667;28;19933;-78
2023/01/07 00:25:29;;;;;;;;;;;10.10;99.90;;;;;;5020238;28;20016;-79
2023/01/07 00:27:54;;;;;;;;;;;10.10;99.90;;;;;;5018649;28;19925;-78
2023/01/07 00:30:20;;;;;;;;;;;10.20;99.90;;;;;;5009658;28;19930;-79
2023/01/07 00:32:53;;;;;;;;;;;10.20;99.90;;;;;;5014128;28;19929;-79
2023/01/07 00:35:22;;;;;;;;;;;10.20;99.90;;;;;;5016016;28;19996;-79
2023/01/07 00:37:48;;;;;;;;;;;10.20;99.90;;;;;;5016259;28;20399;-79
2023/01/07 00:40:14;;;;;;;;;;;10.20;99.90;;;;;;5014391;28;19930;-78
2023/01/07 00:45:24;;;;;;;;;;;10.30;99.90;;;;;;5014128;28;19933;-78
2023/01/07 00:47:53;;;;;;;;;;;10.30;99.90;;;;;;5016677;28;19929;-78
2023/01/07 00:50:19;;;;;;;;;;;10.30;99.90;;;;;;5016214;28;20377;-77
2023/01/07 00:52:45;;;;;;;;;;;10.30;99.90;;;;;;5011825;28;19925;-77
2023/01/07 00:55:10;;;;;;;;;;;10.40;99.90;;;;;;5013532;28;19935;-77
2023/01/07 00:57:36;;;;;;;;;;;10.30;99.90;;;;;;5015939;28;19972;-77
2023/01/07 01:00:01;;;;;;;;;;;10.30;99.90;;;;;;5015032;28;19961;-77
2023/01/07 01:02:27;;;;;;;;;;;10.40;99.90;;;;;;5015546;28;19929;-76
2023/01/07 01:04:52;;;;;;;;;;;10.40;99.90;;;;;;5014701;28;19925;-77
2023/01/07 01:07:18;;;;;;;;;;;10.30;99.90;;;;;;5015709;28;19926;-77
2023/01/07 01:09:43;;;;;;;;;;;10.40;99.90;;;;;;5016241;28;19925;-76
2023/01/07 01:12:09;;;;;;;;;;;10.40;99.90;;;;;;5015782;28;19963;-77
2023/01/07 01:14:35;;;;;;;;;;;10.40;99.90;;;;;;5013231;28;19985;-77
2023/01/07 01:17:00;;;;;;;;;;;10.40;99.90;;;;;;5013173;28;19926;-78
2023/01/07 01:19:26;;;;;;;;;;;10.40;99.90;;;;;;5018015;28;19936;-77
2023/01/07 01:21:51;;;;;;;;;;;10.40;99.90;;;;;;5016713;28;20020;-77
2023/01/07 01:24:17;;;;;;;;;;;10.40;99.90;;;;;;5016718;28;20743;-77
2023/01/07 01:26:42;;;;;;;;;;;10.40;99.90;;;;;;5015522;28;19934;-78
2023/01/07 01:29:08;;;;;;;;;;;10.40;99.90;;;;;;5007379;28;19976;-77
2023/01/07 01:31:33;;;;;;;;;;;10.40;99.90;;;;;;5015181;28;20273;-77
2023/01/07 01:33:59;;;;;;;;;;;10.50;99.90;;;;;;5013794;28;19932;-77
2023/01/07 01:36:24;;;;;;;;;;;10.40;99.90;;;;;;5012146;28;20046;-78
2023/01/07 01:38:50;;;;;;;;;;;10.40;99.90;;;;;;5029297;28;19933;-78
2023/01/07 01:41:16;;;;;;;;;;;10.40;99.90;;;;;;5012219;28;19929;-78
2023/01/07 01:43:43;;;;;;;;;;;10.40;99.90;;;;;;5030802;28;19929;-77
2023/01/07 01:46:35;;;;;;;;;;;10.40;99.90;;;;;;5011686;28;19926;-78
2023/01/07 01:49:11;;;;;;;;;;;10.40;99.90;;;;;;5008605;28;19933;-78
2023/01/07 01:51:40;;;;;;;;;;;10.40;99.90;;;;;;5012896;28;19941;-77
2023/01/07 01:54:07;;;;;;;;;;;10.40;99.90;;;;;;5010205;28;19936;-76
2023/01/07 01:56:34;;;;;;;;;;;10.40;99.90;;;;;;5013177;28;19925;-77
2023/01/07 01:59:04;;;;;;;;;;;10.40;99.90;;;;;;5012098;28;20423;-77
2023/01/07 02:01:31;;;;;;;;;;;10.40;99.90;;;;;;5013819;28;20024;-77
2023/01/07 02:03:56;;;;;;;;;;;10.40;99.90;;;;;;5012803;28;19929;-77
2023/01/07 02:06:27;;;;;;;;;;;10.40;99.90;;;;;;5014113;28;20326;-77
2023/01/07 02:08:53;;;;;;;;;;;10.40;99.90;;;;;;5010611;28;19945;-77
2023/01/07 02:11:30;;;;;;;;;;;10.40;99.90;;;;;;5009157;28;19936;-77
2023/01/07 02:14:16;;;;;;;;;;;10.40;99.90;;;;;;5014810;28;19925;-77
2023/01/07 02:17:00;;;;;;;;;;;10.40;99.90;;;;;;5001980;28;19934;-77
2023/01/07 02:19:43;;;;;;;;;;;10.40;99.90;;;;;;5014593;28;19937;-77
2023/01/07 02:22:18;;;;;;;;;;;10.40;99.90;;;;;;5018145;28;19933;-77
2023/01/07 02:24:46;;;;;;;;;;;10.40;99.90;;;;;;5012303;28;19933;-77
2023/01/07 02:27:20;;;;;;;;;;;10.40;99.90;;;;;;5013742;28;20482;-77
2023/01/07 02:30:04;;;;;;;;;;;10.40;99.90;;;;;;5011569;28;19925;-77
2023/01/07 02:32:36;;;;;;;;;;;10.40;99.90;;;;;;5012158;28;19929;-77
2023/01/07 02:35:07;;;;;;;;;;;10.40;99.90;;;;;;5012463;28;19934;-77
2023/01/07 02:37:52;;;;;;;;;;;10.40;99.90;;;;;;5011028;28;19925;-77
2023/01/07 02:40:17;;;;;;;;;;;10.40;99.90;;;;;;5026925;28;19984;-78
2023/01/07 02:42:48;;;;;;;;;;;10.40;99.90;;;;;;5011803;28;19930;-78
2023/01/07 02:45:19;;;;;;;;;;;10.40;99.90;;;;;;5009474;28;19937;-77
2023/01/07 02:47:51;;;;;;;;;;;10.40;99.90;;;;;;5027395;28;19934;-78
2023/01/07 02:50:16;;;;;;;;;;;10.40;99.90;;;;;;5007001;28;20389;-78
2023/01/07 02:52:42;;;;;;;;;;;10.30;99.90;;;;;;5027250;28;19961;-78
2023/01/07 02:55:18;;;;;;;;;;;10.30;99.90;;;;;;5012957;28;19992;-78
2023/01/07 02:57:56;;;;;;;;;;;10.30;99.90;;;;;;5026260;28;19936;-78
2023/01/07 03:00:24;;;;;;;;;;;10.30;99.90;;;;;;5012436;28;19933;-78
2023/01/07 03:03:02;;;;;;;;;;;10.30;99.90;;;;;;5008702;28;19965;-77
2023/01/07 03:05:40;;;;;;;;;;;10.30;99.90;;;;;;5012331;28;19980;-78
2023/01/07 03:08:24;;;;;;;;;;;10.40;99.90;;;;;;5014080;28;19993;-77
2023/01/07 03:10:58;;;;;;;;;;;10.30;99.90;;;;;;5010138;28;19929;-78
2023/01/07 03:13:28;;;;;;;;;;;10.30;99.90;;;;;;5013110;28;19944;-78
2023/01/07 03:15:54;;;;;;;;;;;10.30;99.90;;;;;;5009023;28;19925;-78
2023/01/07 03:18:19;;;;;;;;;;;10.30;99.90;;;;;;5010724;28;19936;-78
2023/01/07 03:20:47;;;;;;;;;;;10.30;99.90;;;;;;5018017;28;19932;-77
2023/01/07 03:23:13;;;;;;;;;;;10.30;99.90;;;;;;5014900;28;19930;-77
2023/01/07 03:25:42;;;;;;;;;;;10.30;99.90;;;;;;5013083;28;19981;-77
2023/01/07 03:28:09;;;;;;;;;;;10.30;99.90;;;;;;5030948;28;20605;-78
2023/01/07 03:30:36;;;;;;;;;;;10.30;99.90;;;;;;5008804;28;19925;-78
2023/01/07 03:33:06;;;;;;;;;;;10.30;99.90;;;;;;5026878;28;19936;-77
2023/01/07 03:35:33;;;;;;;;;;;10.30;99.90;;;;;;5011302;28;20374;-77
2023/01/07 03:38:00;;;;;;;;;;;10.30;99.90;;;;;;5012521;28;19933;-77
2023/01/07 03:40:26;;;;;;;;;;;10.30;99.90;;;;;;5007470;28;19933;-77
2023/01/07 03:42:52;;;;;;;;;;;10.30;99.90;;;;;;5006013;28;20340;-77
2023/01/07 03:45:19;;;;;;;;;;;10.30;99.90;;;;;;5005128;28;19926;-77
2023/01/07 03:47:47;;;;;;;;;;;10.30;99.90;;;;;;5009014;28;20266;-77
2023/01/07 03:50:13;;;;;;;;;;;10.30;99.90;;;;;;5010996;28;19926;-77
2023/01/07 03:52:39;;;;;;;;;;;10.30;99.90;;;;;;5011975;28;19925;-77
2023/01/07 03:55:04;;;;;;;;;;;10.30;99.90;;;;;;5011380;28;20448;-77
2023/01/07 03:57:31;;;;;;;;;;;10.30;99.90;;;;;;5011688;28;20354;-78
2023/01/07 03:59:56;;;;;;;;;;;10.30;99.90;;;;;;5025228;28;19948;-77
2023/01/07 04:02:22;;;;;;;;;;;10.30;99.90;;;;;;5010593;28;19933;-77
2023/01/07 04:04:48;;;;;;;;;;;10.30;99.90;;;;;;5012103;28;19960;-77
2023/01/07 04:07:13;;;;;;;;;;;10.30;99.90;;;;;;5012957;28;19933;-77
2023/01/07 04:09:39;;;;;;;;;;;10.30;99.90;;;;;;5011794;28;19932;-77
2023/01/07 04:12:05;;;;;;;;;;;10.20;99.90;;;;;;5006703;28;20052;-77
2023/01/07 04:14:30;;;;;;;;;;;10.30;99.90;;;;;;5010841;28;19929;-77
2023/01/07 04:16:56;;;;;;;;;;;10.20;99.90;;;;;;5013850;28;19925;-77
2023/01/07 04:19:21;;;;;;;;;;;10.20;99.90;;;;;;5030227;28;19976;-77
2023/01/07 04:21:47;;;;;;;;;;;10.20;99.90;;;;;;5012415;28;19941;-77
2023/01/07 04:24:12;;;;;;;;;;;10.10;99.90;;;;;;5025457;28;19940;-77
2023/01/07 04:26:38;;;;;;;;;;;10.10;99.90;;;;;;5012616;28;19933;-77
2023/01/07 04:29:04;;;;;;;;;;;10.10;99.90;;;;;;5013078;28;19929;-76
2023/01/07 04:31:29;;;;;;;;;;;10.10;99.90;;;;;;5012521;28;20360;-77
2023/01/07 04:33:55;;;;;;;;;;;10.10;99.90;;;;;;5009816;28;19929;-77
2023/01/07 04:36:21;;;;;;;;;;;10.00;99.90;;;;;;5012870;28;19987;-77
2023/01/07 04:38:47;;;;;;;;;;;10.00;99.90;;;;;;5010660;28;19990;-77
2023/01/07 04:41:12;;;;;;;;;;;10.10;99.90;;;;;;5011287;28;19925;-77
2023/01/07 04:43:38;;;;;;;;;;;10.10;99.90;;;;;;5010863;28;19925;-77
2023/01/07 04:46:03;;;;;;;;;;;10.10;99.90;;;;;;5011913;28;20008;-77
2023/01/07 04:48:29;;;;;;;;;;;10.10;99.90;;;;;;5010618;28;20448;-77
2023/01/07 04:50:55;;;;;;;;;;;10.10;99.90;;;;;;5008514;28;20169;-77
2023/01/07 04:53:21;;;;;;;;;;;10.10;99.90;;;;;;5009462;28;19952;-77
2023/01/07 04:55:46;;;;;;;;;;;10.00;99.90;;;;;;5011824;28;19937;-77
2023/01/07 04:58:12;;;;;;;;;;;10.10;99.90;;;;;;5011880;28;20055;-77
2023/01/07 05:00:37;;;;;;;;;;;10.10;99.90;;;;;;5012070;28;19929;-77
2023/01/07 05:03:03;;;;;;;;;;;10.10;99.90;;;;;;5011444;28;19989;-77
2023/01/07 05:05:28;;;;;;;;;;;10.10;99.90;;;;;;5008950;28;20289;-77
2023/01/07 05:07:54;;;;;;;;;;;10.10;99.90;;;;;;5012993;28;19931;-77
2023/01/07 05:10:19;;;;;;;;;;;10.10;99.90;;;;;;5014140;28;19931;-77
2023/01/07 05:12:45;;;;;;;;;;;10.10;99.90;;;;;;5014848;28;20503;-77
2023/01/07 05:15:11;;;;;;;;;;;10.10;99.90;;;;;;5013182;28;19957;-77
2023/01/07 05:17:36;;;;;;;;;;;10.10;99.90;;;;;;5014854;28;20349;-77
2023/01/07 05:20:02;;;;;;;;;;;10.10;99.90;;;;;;5035603;28;19990;-77
2023/01/07 05:22:28;;;;;;;;;;;10.10;99.90;;;;;;5021482;28;19925;-77
2023/01/07 05:24:54;;;;;;;;;;;10.10;99.90;;;;;;5021354;28;19932;-77
2023/01/07 05:27:19;;;;;;;;;;;10.10;99.90;;;;;;5018573;28;19925;-77
2023/01/07 05:29:45;;;;;;;;;;;10.10;99.90;;;;;;5020896;28;19985;-77
2023/01/07 05:32:10;;;;;;;;;;;10.00;99.90;;;;;;5020467;28;19925;-77
2023/01/07 05:34:36;;;;;;;;;;;10.10;99.90;;;;;;5020340;28;20399;-77
2023/01/07 05:37:01;;;;;;;;;;;10.00;99.90;;;;;;5018324;28;19953;-77
2023/01/07 05:39:27;;;;;;;;;;;10.10;99.90;;;;;;5019675;28;19929;-77
2023/01/07 05:41:53;;;;;;;;;;;10.10;99.90;;;;;;5021031;28;19939;-77
2023/01/07 05:44:18;;;;;;;;;;;10.10;99.90;;;;;;5012293;28;20496;-77
2023/01/07 05:46:44;;;;;;;;;;;10.10;99.90;;;;;;5013528;28;20016;-77
2023/01/07 05:49:09;;;;;;;;;;;10.10;99.90;;;;;;5019449;28;19930;-77
2023/01/07 05:51:35;;;;;;;;;;;10.10;99.90;;;;;;5021009;28;20001;-77
2023/01/07 05:54:00;;;;;;;;;;;10.10;99.90;;;;;;5020655;28;19937;-77
2023/01/07 05:56:26;;;;;;;;;;;10.10;99.90;;;;;;5020015;28;20470;-77
2023/01/07 05:58:52;;;;;;;;;;;10.10;99.90;;;;;;5017796;28;20400;-77
2023/01/07 06:01:17;;;;;;;;;;;10.10;99.90;;;;;;5020474;28;19933;-77
2023/01/07 06:03:43;;;;;;;;;;;10.10;99.90;;;;;;5035486;28;19931;-77
2023/01/07 06:06:08;;;;;;;;;;;10.10;99.90;;;;;;5034903;28;20450;-77
2023/01/07 06:08:37;;;;;;;;;;;10.10;99.90;;;;;;5018703;28;19925;-77
2023/01/07 06:11:03;;;;;;;;;;;10.10;99.90;;;;;;5018431;28;19973;-77
2023/01/07 06:13:29;;;;;;;;;;;10.20;99.90;;;;;;5020359;28;19999;-77
2023/01/07 06:15:59;;;;;;;;;;;10.10;99.90;;;;;;5021005;28;19932;-77
2023/01/07 06:18:24;;;;;;;;;;;10.10;99.90;;;;;;5015524;28;19929;-77
2023/01/07 06:20:50;;;;;;;;;;;10.10;99.90;;;;;;5015662;28;19959;-77
2023/01/07 06:23:15;;;;;;;;;;;10.10;99.90;;;;;;5016770;28;19932;-77
2023/01/07 06:25:41;;;;;;;;;;;10.10;99.90;;;;;;5010652;28;19932;-77
2023/01/07 06:28:06;;;;;;;;;;;10.10;99.90;;;;;;5011936;28;20064;-77
2023/01/07 06:30:32;;;;;;;;;;;10.10;99.90;;;;;;5012342;28;19937;-77
2023/01/07 06:32:58;;;;;;;;;;;10.10;99.90;;;;;;5012536;28;19935;-77
2023/01/07 06:35:23;;;;;;;;;;;10.10;99.90;;;;;;5014836;28;20545;-77
2023/01/07 06:37:49;;;;;;;;;;;10.10;99.90;;;;;;5012845;28;19929;-76
2023/01/07 06:40:14;;;;;;;;;;;10.10;99.90;;;;;;5013182;28;19980;-77
2023/01/07 06:42:40;;;;;;;;;;;10.10;99.90;;;;;;5010618;28;20279;-77
2023/01/07 06:45:06;;;;;;;;;;;10.10;99.90;;;;;;5012087;28;19925;-77
2023/01/07 06:47:31;;;;;;;;;;;10.10;99.90;;;;;;4997038;28;19926;-77
2023/01/07 06:49:57;;;;;;;;;;;10.10;99.90;;;;;;5013774;28;19961;-77
2023/01/07 06:52:22;;;;;;;;;;;10.10;99.90;;;;;;5010556;28;19925;-77
2023/01/07 06:54:48;;;;;;;;;;;10.00;99.90;;;;;;5011405;28;20028;-77
2023/01/07 06:57:13;;;;;;;;;;;10.00;99.90;;;;;;5012893;28;19949;-76
2023/01/07 06:59:39;;;;;;;;;;;10.00;99.90;;;;;;5012434;28;19931;-76
2023/01/07 07:02:04;;;;;;;;;;;10.00;99.90;;;;;;5010442;28;20424;-76
2023/01/07 07:04:30;;;;;;;;;;;10.00;99.90;;;;;;5010758;28;19969;-76
2023/01/07 07:06:56;;;;;;;;;;;9.90;99.90;;;;;;5010152;28;19932;-77
2023/01/07 07:09:21;;;;;;;;;;;9.90;99.90;;;;;;5012701;28;19930;-76
2023/01/07 07:11:47;;;;;;;;;;;9.90;99.90;;;;;;4996308;28;19933;-77
2023/01/07 07:14:12;;;;;;;;;;;9.90;99.90;;;;;;5011642;28;19929;-76
2023/01/07 07:16:38;;;;;;;;;;;9.90;99.90;;;;;;5012734;28;19926;-76
2023/01/07 07:19:03;;;;;;;;;;;9.90;99.90;;;;;;5014350;28;20328;-77
2023/01/07 07:21:29;;;;;;;;;;;9.90;99.90;;;;;;5026930;28;19933;-77
2023/01/07 07:23:54;;;;;;;;;;;9.80;99.90;;;;;;5014048;28;19935;-76
2023/01/07 07:26:20;;;;;;;;;;;9.80;99.90;;;;;;5028126;28;19933;-76
2023/01/07 07:28:46;;;;;;;;;;;9.80;99.90;;;;;;5016100;28;19925;-76
2023/01/07 07:31:11;;;;;;;;;;;9.80;99.90;;;;;;5016663;28;19925;-76
2023/01/07 07:33:37;;;;;;;;;;;9.80;99.90;;;;;;5024653;28;19933;-76
2023/01/07 07:36:03;;;;;;;;;;;9.80;99.90;;;;;;5012424;28;19930;-76
2023/01/07 07:38:29;;;;;;;;;;;9.80;99.90;;;;;;5011881;28;19925;-77
2023/01/07 07:40:55;;;;;;;;;;;9.80;99.90;;;;;;5011222;28;19936;-77
2023/01/07 07:43:21;;;;;;;;;;;9.70;99.90;;;;;;5009711;28;19969;-76
2023/01/07 07:45:46;;;;;;;;;;;9.70;99.90;;;;;;5009726;28;19941;-76
2023/01/07 07:48:13;;;;;;;;;;;9.70;99.90;;;;;;5011727;28;19929;-76
2023/01/07 07:50:38;;;;;;;;;;;9.70;99.90;;;;;;5011098;28;19936;-76
2023/01/07 07:53:04;;;;;;;;;;;9.60;99.90;;;;;;5010539;28;19930;-77
2023/01/07 07:55:30;;;;;;;;;;;9.70;99.90;;;;;;5011403;28;19940;-77
2023/01/07 07:57:57;;;;;;;;;;;9.60;99.90;;;;;;5011882;28;19944;-76
2023/01/07 08:00:23;;;;;;;;;;;9.60;99.90;;;;;;5011787;28;20004;-78
2023/01/07 08:02:48;;;;;;;;;;;9.60;99.90;;;;;;5007493;28;20007;-78
2023/01/07 08:05:14;;;;;;;;;;;9.60;99.90;;;;;;5012982;28;19935;-78
2023/01/07 08:07:40;;;;;;;;;;;9.60;99.90;;;;;;5012748;28;19926;-78
2023/01/07 08:10:06;;;;;;;;;;;9.60;99.90;;;;;;5011495;28;19930;-78
2023/01/07 08:12:35;;;;;;;;;;;9.60;99.90;;;;;;5011082;28;19926;-78
2023/01/07 08:15:00;;;;;;;;;;;9.60;99.90;;;;;;5011205;28;19936;-78
2023/01/07 08:17:26;;;;;;;;;;;9.60;99.90;;;;;;5011004;28;20023;-78
2023/01/07 08:19:51;;;;;;;;;;;9.60;99.90;;;;;;5012562;28;19956;-78
2023/01/07 08:22:17;;;;;;;;;;;9.50;99.90;;;;;;5008632;28;19969;-79
2023/01/07 08:24:42;;;;;;;;;;;9.60;99.90;;;;;;5012970;28;19926;-78
2023/01/07 08:27:08;;;;;;;;;;;9.50;99.90;;;;;;5012424;28;19936;-79
2023/01/07 08:29:34;;;;;;;;;;;9.50;99.90;;;;;;5010664;28;19932;-77
2023/01/07 08:31:59;;;;;;;;;;;9.50;99.90;;;;;;5009290;28;19925;-79
2023/01/07 08:34:27;;;;;;;;;;;9.50;99.90;;;;;;5010614;28;21334;-79
2023/01/07 08:36:53;;;;;;;;;;;9.50;99.90;;;;;;5012210;28;19980;-77
2023/01/07 08:39:19;;;;;;;;;;;9.60;99.90;;;;;;5016563;28;19930;-77
2023/01/07 08:41:44;;;;;;;;;;;9.60;99.90;;;;;;5019631;28;19964;-79
2023/01/07 08:44:10;;;;;;;;;;;9.60;99.90;;;;;;5020483;28;19925;-78
2023/01/07 08:46:36;;;;;;;;;;;9.60;99.90;;;;;;5021627;28;20459;-78
2023/01/07 08:49:01;;;;;;;;;;;9.70;99.90;;;;;;5018977;28;19936;-79
2023/01/07 08:51:27;;;;;;;;;;;9.70;99.90;;;;;;5019260;28;19929;-79
2023/01/07 08:53:53;;;;;;;;;;;9.70;99.90;;;;;;5018410;28;19932;-78
2023/01/07 08:56:19;;;;;;;;;;;9.70;99.90;;;;;;5020629;28;19969;-78
2023/01/07 08:58:44;;;;;;;;;;;9.80;99.90;;;;;;5015803;28;19940;-78
2023/01/07 09:01:10;;;;;;;;;;;9.90;99.90;;;;;;4998270;28;20546;-78
2023/01/07 09:03:36;;;;;;;;;;;9.90;99.90;;;;;;5018935;28;20362;-80
2023/01/07 09:06:02;;;;;;;;;;;9.90;99.90;;;;;;5017893;28;19926;-80
2023/01/07 09:08:28;;;;;;;;;;;10.00;99.90;;;;;;5003378;28;20403;-80
2023/01/07 09:10:53;;;;;;;;;;;10.00;99.90;;;;;;5020130;28;19983;-77
2023/01/07 09:13:19;;;;;;;;;;;10.00;99.90;;;;;;5019681;28;19957;-75
2023/01/07 09:15:44;;;;;;;;;;;10.10;99.90;;;;;;5019202;28;19932;-81
2023/01/07 09:18:10;;;;;;;;;;;10.10;99.90;;;;;;5019766;28;19981;-80
2023/01/07 09:20:35;;;;;;;;;;;10.00;99.90;;;;;;5018990;28;19925;-80
2023/01/07 09:23:01;;;;;;;;;;;10.10;99.90;;;;;;5018333;28;19925;-80
2023/01/07 09:25:26;;;;;;;;;;;10.00;99.90;;;;;;5015195;28;19956;-80
2023/01/07 09:27:52;;;;;;;;;;;10.10;99.90;;;;;;5019642;28;19932;-81
2023/01/07 09:30:18;;;;;;;;;;;10.10;99.90;;;;;;5017314;28;19965;-81
2023/01/07 09:32:44;;;;;;;;;;;10.10;99.90;;;;;;5015547;28;19929;-81
2023/01/07 09:35:10;;;;;;;;;;;10.00;99.90;;;;;;5001364;28;19929;-81
2023/01/07 09:37:35;;;;;;;;;;;10.00;99.90;;;;;;5012670;28;19925;-81
2023/01/07 09:40:02;;;;;;;;;;;10.00;99.90;;;;;;5014763;28;19936;-81
2023/01/07 09:42:34;;;;;;;;;;;10.00;99.90;;;;;;5019273;28;19929;-81
2023/01/07 09:45:04;;;;;;;;;;;10.00;99.90;;;;;;5016511;28;19925;-81
2023/01/07 09:47:32;;;;;;;;;;;10.00;99.90;;;;;;5029414;28;19944;-80
2023/01/07 09:50:04;;;;;;;;;;;10.00;99.90;;;;;;5018368;28;19955;-81
2023/01/07 09:52:35;;;;;;;;;;;10.00;99.90;;;;;;5016778;28;19925;-81
2023/01/07 09:55:06;;;;;;;;;;;10.00;99.90;;;;;;5001917;28;20016;-80
2023/01/07 09:57:32;;;;;;;;;;;10.00;99.90;;;;;;5015733;28;19925;-80
2023/01/07 09:59:57;;;;;;;;;;;10.10;99.90;;;;;;5020666;28;19929;-81
2023/01/07 10:02:23;;;;;;;;;;;10.10;99.90;;;;;;5018238;28;20394;-80
2023/01/07 10:05:07;;;;;;;;;;;10.20;99.90;;;;;;5018211;28;20016;-81
2023/01/07 10:07:32;;;;;;;;;;;10.20;99.90;;;;;;5018896;28;20277;-79
2023/01/07 10:10:13;;;;;;;;;;;10.30;99.90;;;;;;5014536;28;19930;-80
2023/01/07 10:12:57;;;;;;;;;;;10.30;99.90;;;;;;5033447;28;20341;-81
2023/01/07 10:15:41;;;;;;;;;;;10.40;99.90;;;;;;5007246;28;19944;-80
2023/01/07 10:18:11;;;;;;;;;;;10.40;99.90;;;;;;5019162;28;19929;-80
2023/01/07 10:20:36;;;;;;;;;;;10.50;99.90;;;;;;5015666;28;19989;-80
2023/01/07 10:23:06;;;;;;;;;;;10.50;99.90;;;;;;5018645;28;19965;-81
2023/01/07 10:25:34;;;;;;;;;;;10.60;99.90;;;;;;5023675;28;19927;-79
2023/01/07 10:28:03;;;;;;;;;;;10.60;99.90;;;;;;5017456;28;20024;-80
2023/01/07 10:30:31;;;;;;;;;;;10.60;99.90;;;;;;5011908;28;20381;-81
2023/01/07 10:33:28;;;;;;;;;;;10.70;99.90;;;;;;5019499;28;19925;-80
2023/01/07 10:36:14;;;;;;;;;;;10.70;99.90;;;;;;5006193;28;19925;-80
2023/01/07 10:38:41;;;;;;;;;;;10.80;99.90;;;;;;5010067;28;19932;-80
2023/01/07 10:41:11;;;;;;;;;;;10.80;99.90;;;;;;5017027;28;19926;-80
2023/01/07 10:43:43;;;;;;;;;;;10.80;99.90;;;;;;5017975;28;20507;-80
2023/01/07 10:46:18;;;;;;;;;;;10.90;99.90;;;;;;5033409;28;19947;-79
2023/01/07 10:48:50;;;;;;;;;;;10.90;99.90;;;;;;5017979;28;20549;-80
2023/01/07 10:51:15;;;;;;;;;;;10.90;99.90;;;;;;5016820;28;19941;-80
2023/01/07 10:53:50;;;;;;;;;;;10.90;99.90;;;;;;5017044;28;19952;-80
2023/01/07 10:56:36;;;;;;;;;;;10.90;99.90;;;;;;5018935;28;19929;-80
2023/01/07 10:59:02;;;;;;;;;;;10.90;99.90;;;;;;5000522;28;19992;-79
2023/01/07 11:01:33;;;;;;;;;;;10.90;99.90;;;;;;5032345;28;19964;-80
2023/01/07 11:03:59;;;;;;;;;;;10.90;99.90;;;;;;5017582;28;20298;-80
2023/01/07 11:06:28;;;;;;;;;;;10.90;99.90;;;;;;5015568;28;19932;-80
2023/01/07 11:08:54;;;;;;;;;;;10.90;99.90;;;;;;5030301;28;19932;-80
2023/01/07 11:11:21;;;;;;;;;;;10.80;99.90;;;;;;4999857;28;19925;-80
2023/01/07 11:13:53;;;;;;;;;;;10.80;99.90;;;;;;5017883;28;19933;-80
2023/01/07 11:16:28;;;;;;;;;;;10.80;99.90;;;;;;5016843;28;19981;-80
2023/01/07 11:19:01;;;;;;;;;;;10.80;99.90;;;;;;5008584;28;19925;-79
2023/01/07 11:21:47;;;;;;;;;;;10.90;99.90;;;;;;5016531;28;19930;-80
2023/01/07 11:24:25;;;;;;;;;;;10.90;99.90;;;;;;5017489;28;19925;-80
2023/01/07 11:26:51;;;;;;;;;;;10.90;99.90;;;;;;5011331;28;19925;-80
2023/01/07 11:29:24;;;;;;;;;;;10.90;99.90;;;;;;5017044;28;19929;-79
2023/01/07 11:31:51;;;;;;;;;;;11.00;99.90;;;;;;5015861;28;19933;-80
2023/01/07 11:34:17;;;;;;;;;;;11.00;99.90;;;;;;5017671;28;19933;-80
2023/01/07 11:36:43;;;;;;;;;;;11.00;99.90;;;;;;5017232;28;19935;-81
2023/01/07 11:39:10;;;;;;;;;;;11.00;99.90;;;;;;4983053;28;19992;-80
2023/01/07 11:41:35;;;;;;;;;;;11.00;99.90;;;;;;5037901;28;20005;-80
2023/01/07 11:44:01;;;;;;;;;;;11.00;99.90;;;;;;5000092;28;19965;-79
2023/01/07 11:46:30;;;;;;;;;;;11.10;99.90;;;;;;5012639;28;19944;-81
2023/01/07 11:49:01;;;;;;;;;;;11.10;99.90;;;;;;5016186;28;19972;-81
2023/01/07 11:51:37;;;;;;;;;;;11.10;99.90;;;;;;5014228;28;19957;-80
2023/01/07 11:54:02;;;;;;;;;;;11.10;99.90;;;;;;5015935;28;19929;-80
2023/01/07 11:56:29;;;;;;;;;;;11.10;99.90;;;;;;5014743;28;19936;-80
2023/01/07 11:59:10;;;;;;;;;;;11.10;99.90;;;;;;5014220;28;19925;-80
2023/01/07 12:01:55;;;;;;;;;;;11.10;99.90;;;;;;5016620;28;19926;-80
2023/01/07 12:04:21;;;;;;;;;;;11.10;99.90;;;;;;5018835;28;20335;-82
2023/01/07 12:06:47;;;;;;;;;;;11.10;99.90;;;;;;5016833;28;19929;-81
2023/01/07 12:09:16;;;;;;;;;;;11.20;99.90;;;;;;5017488;28;19929;-81
2023/01/07 12:11:42;;;;;;;;;;;11.20;99.90;;;;;;5015538;28;19948;-82
2023/01/07 12:14:17;;;;;;;;;;;11.20;99.90;;;;;;5016878;28;19980;-82
2023/01/07 12:16:43;;;;;;;;;;;11.10;99.90;;;;;;5024359;28;19941;-81
2023/01/07 12:19:19;;;;;;;;;;;11.10;99.90;;;;;;5021788;28;20261;-82
2023/01/07 12:21:45;;;;;;;;;;;11.00;99.90;;;;;;5024436;28;19925;-80
2023/01/07 12:24:23;;;;;;;;;;;11.00;99.90;;;;;;5024555;28;20020;-84
2023/01/07 12:26:53;;;;;;;;;;;11.00;99.90;;;;;;5029349;28;19926;-85
2023/01/07 12:29:24;;;;;;;;;;;11.00;99.90;;;;;;5020833;28;19932;-80
2023/01/07 12:32:12;;;;;;;;;;;11.00;99.90;;;;;;5025877;28;19985;-80
2023/01/07 12:34:49;;;;;;;;;;;11.00;99.90;;;;;;5021591;28;19937;-79
2023/01/07 12:37:24;;;;;;;;;;;11.00;99.90;;;;;;5034862;28;19934;-78
2023/01/07 12:39:51;;;;;;;;;;;11.10;99.90;;;;;;5013431;28;19977;-78
2023/01/07 12:42:23;;;;;;;;;;;11.10;99.90;;;;;;5017558;28;20312;-79
2023/01/07 12:44:51;;;;;;;;;;;11.20;99.90;;;;;;5011884;28;19932;-79
2023/01/07 12:47:21;;;;;;;;;;;11.20;99.90;;;;;;5015680;28;19933;-76
2023/01/07 12:49:49;;;;;;;;;;;11.20;99.90;;;;;;5013574;28;19952;-81
2023/01/07 12:52:24;;;;;;;;;;;11.20;99.90;;;;;;5017472;28;20004;-80
2023/01/07 12:54:54;;;;;;;;;;;11.20;99.90;;;;;;5016294;28;19936;-80
2023/01/07 12:57:22;;;;;;;;;;;11.30;99.90;;;;;;5016752;28;19936;-80
2023/01/07 13:00:00;;;;;;;;;;;11.30;99.90;;;;;;5013528;28;19940;-80
2023/01/07 13:02:28;;;;;;;;;;;11.30;99.90;;;;;;5011501;28;19988;-80
2023/01/07 13:05:08;;;;;;;;;;;11.30;99.90;;;;;;5016262;28;19931;-80
2023/01/07 13:07:38;;;;;;;;;;;11.30;99.90;;;;;;5014454;28;20310;-79
2023/01/07 13:10:07;;;;;;;;;;;11.30;99.90;;;;;;5016932;28;19948;-79
2023/01/07 13:12:44;;;;;;;;;;;11.30;99.90;;;;;;5034898;28;19948;-79
2023/01/07 13:15:28;;;;;;;;;;;11.30;99.90;;;;;;5021631;28;19930;-79
2023/01/07 13:17:55;;;;;;;;;;;11.30;99.90;;;;;;5018919;28;19929;-84
2023/01/07 13:20:47;;;;;;;;;;;11.30;99.90;;;;;;5027346;28;20016;-85
2023/01/07 13:23:21;;;;;;;;;;;11.30;99.90;;;;;;5001892;28;19929;-81
2023/01/07 13:26:02;;;;;;;;;;;11.30;99.90;;;;;;5020310;28;19926;-81
2023/01/07 13:28:46;;;;;;;;;;;11.30;99.90;;;;;;5031871;28;19929;-84
2023/01/07 13:31:20;;;;;;;;;;;11.30;99.90;;;;;;5014939;28;19940;-82
2023/01/07 13:33:53;;;;;;;;;;;11.30;99.90;;;;;;5022988;28;20309;-84
2023/01/07 13:36:26;;;;;;;;;;;11.30;99.90;;;;;;5021462;28;19948;-85
2023/01/07 13:38:54;;;;;;;;;;;11.20;99.90;;;;;;5017216;28;19933;-84
2023/01/07 13:41:20;;;;;;;;;;;11.20;99.90;;;;;;5018263;28;19945;-84
2023/01/07 13:43:56;;;;;;;;;;;11.20;99.90;;;;;;5019256;28;19929;-82
2023/01/07 13:46:25;;;;;;;;;;;11.10;99.90;;;;;;5003206;28;19968;-84
2023/01/07 13:48:51;;;;;;;;;;;11.10;99.90;;;;;;5017403;28;19993;-83
2023/01/07 13:51:28;;;;;;;;;;;11.10;99.90;;;;;;5019703;28;19956;-84
2023/01/07 13:53:53;;;;;;;;;;;11.00;99.90;;;;;;5019493;28;19926;-79
2023/01/07 13:56:19;;;;;;;;;;;11.00;99.90;;;;;;5019413;28;19975;-80
2023/01/07 13:58:48;;;;;;;;;;;11.00;99.90;;;;;;5017322;28;20412;-80
2023/01/07 14:01:14;;;;;;;;;;;11.00;99.90;;;;;;5018024;28;19926;-80
2023/01/07 14:03:40;;;;;;;;;;;10.90;99.90;;;;;;5018842;28;19925;-81
2023/01/07 14:06:22;;;;;;;;;;;10.90;99.90;;;;;;5019666;28;19926;-80
2023/01/07 14:08:56;;;;;;;;;;;10.90;99.90;;;;;;4998344;28;19952;-80
2023/01/07 14:11:41;;;;;;;;;;;10.90;99.90;;;;;;5020079;28;19925;-80
2023/01/07 14:14:10;;;;;;;;;;;10.90;99.90;;;;;;5017547;28;19949;-80
2023/01/07 14:16:50;;;;;;;;;;;10.90;99.90;;;;;;5035059;28;19929;-82
2023/01/07 14:19:16;;;;;;;;;;;10.80;99.90;;;;;;5033547;28;19940;-82
2023/01/07 14:21:51;;;;;;;;;;;10.80;99.90;;;;;;5018680;28;20015;-83
2023/01/07 14:24:20;;;;;;;;;;;10.80;99.90;;;;;;5017336;28;20416;-84
2023/01/07 14:27:02;;;;;;;;;;;10.80;99.90;;;;;;5002044;28;19926;-80
2023/01/07 14:29:31;;;;;;;;;;;10.70;99.90;;;;;;5018961;28;19933;-83